Time;durP1;ratioP1;P1;durP2;ratioP2;P2;SDS_P1;SDS_P2;PMS_P1;PMS_P2;Temp;Humidity;BMP_temperature;BMP_pressure;BME280_temperature;BME280_humidity;BME280_pressure;Samples;Min_cycle;Max_cycle;Signal;HPM_P1;HPM_P2
2021/10/11 00:01:55;;;;;;;21.15;11.80;;;13.60;50.70;;;;;;5052348;28;20060;-63
2021/10/11 00:04:21;;;;;;;20.80;11.93;;;13.60;50.90;;;;;;5052552;28;20024;-63
2021/10/11 00:06:46;;;;;;;20.33;12.15;;;13.60;51.00;;;;;;5034633;28;20363;-62
2021/10/11 00:09:12;;;;;;;20.80;12.43;;;13.50;51.10;;;;;;5033896;28;20033;-62
2021/10/11 00:11:38;;;;;;;21.83;11.88;;;13.50;51.30;;;;;;5052383;28;20343;-62
2021/10/11 00:14:04;;;;;;;27.08;11.70;;;13.50;51.40;;;;;;5051652;28;20358;-62
2021/10/11 00:16:30;;;;;;;23.92;12.38;;;13.50;51.50;;;;;;5052588;28;20493;-62
2021/10/11 00:18:55;;;;;;;23.25;12.18;;;13.40;51.50;;;;;;5052152;28;20462;-62
2021/10/11 00:21:21;;;;;;;23.10;12.18;;;13.40;51.90;;;;;;5034907;28;20477;-65
2021/10/11 00:23:47;;;;;;;27.02;12.85;;;13.40;52.00;;;;;;5034987;28;20117;-62
2021/10/11 00:26:13;;;;;;;18.17;12.52;;;13.30;52.10;;;;;;5052174;28;20588;-63
2021/10/11 00:28:39;;;;;;;17.45;10.93;;;13.30;52.20;;;;;;5052406;28;20461;-63
2021/10/11 00:31:05;;;;;;;18.10;11.20;;;13.40;52.20;;;;;;5052146;28;20036;-63
2021/10/11 00:33:31;;;;;;;20.15;12.85;;;13.50;52.20;;;;;;5051717;28;20040;-63
2021/10/11 00:35:57;;;;;;;17.92;11.90;;;13.50;52.10;;;;;;5052280;28;20039;-62
2021/10/11 00:38:22;;;;;;;21.20;11.23;;;13.50;52.10;;;;;;5052346;28;20466;-63
2021/10/11 00:40:48;;;;;;;20.50;11.95;;;13.50;52.10;;;;;;5034298;28;20056;-63
2021/10/11 00:43:14;;;;;;;21.35;11.23;;;13.50;52.10;;;;;;5051802;28;20021;-63
2021/10/11 00:45:40;;;;;;;25.98;11.75;;;13.50;52.20;;;;;;5051911;28;20110;-62
2021/10/11 00:48:06;;;;;;;20.73;11.38;;;13.50;52.20;;;;;;5051296;28;20044;-63
2021/10/11 00:50:33;;;;;;;22.00;12.00;;;13.50;52.30;;;;;;5052017;28;20060;-63
2021/10/11 00:52:59;;;;;;;18.85;11.32;;;13.50;52.40;;;;;;5051546;28;20025;-63
2021/10/11 00:55:25;;;;;;;19.33;11.68;;;13.40;52.30;;;;;;5051967;28;20438;-63
2021/10/11 00:57:51;;;;;;;19.67;11.73;;;13.40;52.30;;;;;;5051018;28;20043;-62
2021/10/11 01:00:17;;;;;;;18.83;12.00;;;13.40;52.40;;;;;;5051289;28;20029;-63
2021/10/11 01:02:42;;;;;;;18.70;11.35;;;13.30;52.40;;;;;;5032876;28;20029;-62
2021/10/11 01:05:09;;;;;;;20.00;10.65;;;13.30;52.50;;;;;;5049490;28;20033;-63
2021/10/11 01:07:35;;;;;;;16.58;11.80;;;13.30;52.50;;;;;;5033521;28;20024;-62
2021/10/11 01:10:01;;;;;;;20.38;11.80;;;13.30;52.80;;;;;;5050932;28;20025;-62
2021/10/11 01:12:27;;;;;;;20.52;11.38;;;13.20;52.70;;;;;;5051248;28;20031;-62
2021/10/11 01:14:53;;;;;;;23.80;12.20;;;13.30;52.80;;;;;;5051116;28;20128;-62
2021/10/11 01:17:18;;;;;;;19.27;12.00;;;13.20;52.80;;;;;;5051555;28;20029;-62
2021/10/11 01:19:55;;;;;;;25.88;12.18;;;13.30;52.80;;;;;;5033550;28;20021;-62
2021/10/11 01:22:20;;;;;;;21.25;11.65;;;13.20;52.80;;;;;;5051525;28;20025;-62
2021/10/11 01:24:46;;;;;;;19.30;11.75;;;13.20;53.00;;;;;;5051449;28;20035;-63
2021/10/11 01:27:12;;;;;;;17.55;11.52;;;13.20;53.00;;;;;;5050342;28;20029;-63
2021/10/11 01:29:38;;;;;;;20.33;12.15;;;13.20;53.00;;;;;;5051349;28;20052;-63
2021/10/11 01:32:04;;;;;;;23.65;11.98;;;13.20;53.00;;;;;;5050543;28;20025;-63
2021/10/11 01:34:30;;;;;;;20.63;12.02;;;13.20;53.00;;;;;;5051054;28;20025;-62
2021/10/11 01:36:55;;;;;;;21.83;12.48;;;13.10;53.20;;;;;;5032574;28;20033;-62
2021/10/11 01:39:21;;;;;;;18.77;12.02;;;13.10;53.30;;;;;;5051162;28;20020;-62
2021/10/11 01:41:47;;;;;;;21.75;11.52;;;13.10;53.30;;;;;;5033045;28;20064;-62
2021/10/11 01:44:12;;;;;;;26.58;12.93;;;13.00;53.40;;;;;;5050592;28;20053;-62
2021/10/11 01:46:38;;;;;;;22.15;12.35;;;13.00;53.50;;;;;;5050848;28;20390;-62
2021/10/11 01:49:05;;;;;;;25.05;12.90;;;13.00;53.50;;;;;;5050412;28;20104;-63
2021/10/11 01:51:32;;;;;;;22.00;12.00;;;13.10;53.60;;;;;;5050516;28;20548;-62
2021/10/11 01:53:57;;;;;;;19.88;11.80;;;13.10;54.10;;;;;;5032267;28;20033;-62
2021/10/11 01:56:23;;;;;;;21.98;12.25;;;13.00;54.00;;;;;;5051240;28;20410;-62
2021/10/11 01:58:49;;;;;;;20.80;11.95;;;13.00;53.90;;;;;;5051230;28;20033;-62
2021/10/11 02:01:14;;;;;;;19.67;12.32;;;13.00;53.90;;;;;;5033279;28;20053;-62
2021/10/11 02:03:40;;;;;;;21.02;12.27;;;13.00;54.50;;;;;;5051305;28;20111;-63
2021/10/11 02:08:50;;;;;;;;;;;12.80;54.30;;;;;;5051989;28;20124;-62
2021/10/11 02:11:16;;;;;;;17.95;11.38;;;12.90;54.30;;;;;;5050831;28;19956;-62
2021/10/11 02:13:42;;;;;;;19.60;12.15;;;12.90;54.20;;;;;;5033547;28;20061;-64
2021/10/11 02:16:08;;;;;;;20.75;11.60;;;12.90;54.20;;;;;;5033199;28;20065;-62
2021/10/11 02:18:33;;;;;;;19.58;11.90;;;13.00;54.20;;;;;;5051875;28;20083;-61
2021/10/11 02:20:59;;;;;;;18.80;12.23;;;12.90;54.10;;;;;;5050854;28;20029;-63
2021/10/11 02:23:26;;;;;;;21.30;12.00;;;12.90;54.20;;;;;;5033378;28;20462;-63
2021/10/11 02:25:52;;;;;;;18.52;11.95;;;12.90;54.30;;;;;;5033502;28;20036;-62
2021/10/11 02:28:18;;;;;;;21.42;11.40;;;12.90;54.30;;;;;;5050888;28;20033;-62
2021/10/11 02:30:44;;;;;;;21.92;11.68;;;12.90;54.30;;;;;;5051521;28;20040;-62
2021/10/11 02:33:10;;;;;;;20.75;11.25;;;13.00;54.30;;;;;;5050179;28;20025;-62
2021/10/11 02:35:35;;;;;;;28.35;12.80;;;13.00;54.30;;;;;;5050789;28;20028;-62
2021/10/11 02:38:01;;;;;;;23.33;12.30;;;13.00;54.20;;;;;;5050385;28;20029;-62
2021/10/11 02:40:27;;;;;;;18.65;11.93;;;13.00;54.20;;;;;;5033268;28;20032;-62
2021/10/11 02:42:53;;;;;;;23.05;11.65;;;13.00;54.10;;;;;;5051158;28;20418;-62
2021/10/11 02:45:19;;;;;;;21.65;11.32;;;12.90;54.20;;;;;;5050805;28;20045;-63
2021/10/11 02:47:45;;;;;;;21.50;12.15;;;12.90;54.30;;;;;;5032888;28;20090;-63
2021/10/11 02:50:11;;;;;;;21.35;11.95;;;12.90;54.50;;;;;;5050361;28;20079;-63
2021/10/11 02:52:36;;;;;;;24.15;12.52;;;12.90;54.40;;;;;;5051294;28;20074;-63
2021/10/11 02:55:04;;;;;;;23.38;11.65;;;12.90;54.50;;;;;;5050429;28;20029;-62
2021/10/11 02:57:30;;;;;;;19.02;12.25;;;12.90;54.60;;;;;;5050407;28;20094;-62
2021/10/11 02:59:56;;;;;;;19.48;12.52;;;12.80;54.60;;;;;;5050101;28;20029;-63
2021/10/11 03:02:22;;;;;;;25.10;12.10;;;12.90;54.70;;;;;;5050833;28;20218;-62
2021/10/11 03:04:49;;;;;;;17.92;12.27;;;12.90;54.70;;;;;;5050483;28;20504;-62
2021/10/11 03:07:16;;;;;;;22.80;12.38;;;12.80;54.70;;;;;;5031999;28;20578;-64
2021/10/11 03:09:42;;;;;;;20.88;12.48;;;12.80;54.70;;;;;;5050079;28;20521;-63
2021/10/11 03:12:07;;;;;;;20.90;12.38;;;12.80;54.70;;;;;;5032469;28;20071;-63
2021/10/11 03:14:33;;;;;;;20.70;12.07;;;12.80;55.00;;;;;;5033008;28;20025;-66
2021/10/11 03:16:59;;;;;;;21.50;12.05;;;12.70;55.00;;;;;;5017758;28;20365;-62
2021/10/11 03:19:24;;;;;;;21.45;12.00;;;12.80;55.50;;;;;;5046103;28;20526;-63
2021/10/11 03:21:50;;;;;;;21.65;12.50;;;12.70;55.40;;;;;;5049434;28;20037;-63
2021/10/11 03:24:16;;;;;;;23.92;11.88;;;12.70;55.10;;;;;;5032097;28;20435;-63
2021/10/11 03:26:41;;;;;;;19.35;12.10;;;12.70;55.30;;;;;;5054010;28;20466;-62
2021/10/11 03:29:07;;;;;;;22.35;12.20;;;12.70;56.10;;;;;;5053155;28;20029;-62
2021/10/11 03:31:33;;;;;;;23.98;12.40;;;12.60;55.80;;;;;;5053973;28;20144;-62
2021/10/11 03:33:58;;;;;;;21.75;12.57;;;12.60;55.90;;;;;;5053440;28;20105;-62
2021/10/11 03:36:24;;;;;;;24.05;13.20;;;12.60;55.80;;;;;;5054477;28;20485;-62
2021/10/11 03:38:50;;;;;;;24.23;13.13;;;12.60;56.00;;;;;;5053326;28;20104;-62
2021/10/11 03:41:16;;;;;;;22.27;13.13;;;12.50;56.00;;;;;;5053064;28;20024;-62
2021/10/11 03:43:41;;;;;;;23.02;13.27;;;12.50;55.90;;;;;;5053650;28;20025;-62
2021/10/11 03:46:07;;;;;;;23.90;13.40;;;12.50;56.00;;;;;;5052111;28;20033;-62
2021/10/11 03:48:33;;;;;;;23.00;13.32;;;12.50;55.90;;;;;;5053487;28;20112;-63
2021/10/11 03:50:59;;;;;;;22.40;12.90;;;12.50;56.00;;;;;;5051794;28;20480;-62
2021/10/11 03:53:24;;;;;;;23.98;12.20;;;12.50;55.80;;;;;;5053755;28;20048;-62
2021/10/11 03:55:50;;;;;;;23.50;12.82;;;12.60;55.90;;;;;;5053416;28;20466;-63
2021/10/11 03:58:16;;;;;;;21.02;12.77;;;12.60;55.90;;;;;;5034765;28;20025;-63
2021/10/11 04:00:42;;;;;;;20.48;12.57;;;12.50;55.80;;;;;;5053501;28;20032;-62
2021/10/11 04:03:09;;;;;;;24.27;13.52;;;12.60;55.80;;;;;;5052775;28;20033;-62
2021/10/11 04:05:35;;;;;;;22.60;13.52;;;12.70;55.60;;;;;;5035508;28;20454;-62
2021/10/11 04:08:21;;;;;;;22.15;12.95;;;12.70;55.70;;;;;;5052848;28;20040;-63
2021/10/11 04:13:19;;;;;;;21.67;13.35;;;12.60;55.70;;;;;;5052874;28;20033;-62
2021/10/11 04:15:44;;;;;;;20.17;12.98;;;12.60;55.70;;;;;;5035126;28;20025;-63
2021/10/11 04:18:10;;;;;;;26.90;13.90;;;12.60;55.70;;;;;;5034198;28;20130;-63
2021/10/11 04:20:36;;;;;;;21.48;11.85;;;12.60;55.70;;;;;;5051662;28;20063;-63
2021/10/11 04:23:02;;;;;;;18.95;12.65;;;12.60;55.70;;;;;;5052142;28;20040;-63
2021/10/11 04:25:28;;;;;;;21.17;13.48;;;12.60;55.80;;;;;;5034306;28;20032;-62
2021/10/11 04:27:53;;;;;;;22.05;13.52;;;12.60;55.70;;;;;;5050972;28;20405;-63
2021/10/11 04:30:19;;;;;;;26.40;15.20;;;12.60;55.80;;;;;;5051845;28;20100;-62
2021/10/11 04:32:45;;;;;;;22.67;12.85;;;12.60;55.80;;;;;;5052217;28;20052;-63
2021/10/11 04:35:11;;;;;;;20.08;13.15;;;12.50;56.50;;;;;;5051350;28;20021;-63
2021/10/11 04:37:39;;;;;;;20.88;13.30;;;12.60;55.80;;;;;;5051767;28;20375;-63
2021/10/11 04:40:06;;;;;;;20.92;12.77;;;12.60;55.90;;;;;;5051770;28;20025;-63
2021/10/11 04:42:31;;;;;;;26.55;13.68;;;12.60;55.90;;;;;;5052174;28;20057;-63
2021/10/11 04:44:57;;;;;;;21.02;13.55;;;12.60;55.80;;;;;;5052230;28;20142;-63
2021/10/11 04:47:23;;;;;;;23.25;13.52;;;12.60;55.80;;;;;;5051339;28;20040;-63
2021/10/11 04:49:48;;;;;;;22.25;13.35;;;12.70;55.70;;;;;;5052268;28;20033;-62
2021/10/11 04:52:14;;;;;;;21.48;13.90;;;12.70;55.70;;;;;;5051370;28;20433;-62
2021/10/11 04:54:40;;;;;;;24.95;15.30;;;12.70;55.60;;;;;;5033964;28;20435;-62
2021/10/11 04:57:06;;;;;;;20.90;13.70;;;12.70;55.50;;;;;;5051291;28;20060;-62
2021/10/11 04:59:31;;;;;;;27.73;13.50;;;12.70;55.40;;;;;;5051920;28;20441;-63
2021/10/11 05:01:57;;;;;;;23.73;13.95;;;12.70;55.50;;;;;;5033984;28;20091;-63
2021/10/11 05:04:23;;;;;;;22.45;13.23;;;12.70;55.50;;;;;;5051022;28;20037;-63
2021/10/11 05:06:49;;;;;;;23.45;13.50;;;12.70;55.40;;;;;;5051714;28;20021;-62
2021/10/11 05:09:14;;;;;;;25.95;13.30;;;12.70;55.40;;;;;;5051127;28;20044;-62
2021/10/11 05:11:40;;;;;;;29.02;13.48;;;12.70;55.40;;;;;;5051679;28;20430;-64
2021/10/11 05:14:06;;;;;;;23.15;13.30;;;12.70;55.30;;;;;;5050944;28;20423;-64
2021/10/11 05:16:34;;;;;;;22.10;14.10;;;12.70;55.20;;;;;;5050547;28;20378;-64
2021/10/11 05:19:00;;;;;;;22.33;13.80;;;12.70;55.20;;;;;;5052381;28;20454;-63
2021/10/11 05:21:26;;;;;;;21.73;13.38;;;12.70;55.20;;;;;;5051733;28;20137;-63
2021/10/11 05:23:51;;;;;;;25.08;13.23;;;12.70;55.80;;;;;;5051293;28;20103;-63
2021/10/11 05:26:17;;;;;;;23.90;13.48;;;12.80;56.40;;;;;;5032570;28;20107;-64
2021/10/11 05:28:43;;;;;;;26.35;12.88;;;12.80;55.70;;;;;;5051419;28;20215;-63
2021/10/11 05:31:09;;;;;;;22.52;13.63;;;12.80;56.20;;;;;;5050602;28;20212;-63
2021/10/11 05:33:35;;;;;;;24.80;13.30;;;12.80;56.10;;;;;;5050798;28;20070;-64
2021/10/11 05:36:02;;;;;;;22.48;13.70;;;12.80;56.90;;;;;;5051137;28;20033;-63
2021/10/11 05:38:28;;;;;;;25.98;12.82;;;12.70;56.00;;;;;;5050806;28;20081;-63
2021/10/11 05:40:55;;;;;;;30.55;14.57;;;12.70;56.30;;;;;;5050941;28;20056;-63
2021/10/11 05:43:21;;;;;;;22.48;13.60;;;12.70;57.10;;;;;;5050289;28;20040;-63
2021/10/11 05:45:47;;;;;;;24.38;13.25;;;12.70;57.60;;;;;;5050794;28;20060;-63
2021/10/11 05:48:13;;;;;;;20.42;13.77;;;12.70;57.00;;;;;;5049692;28;20083;-63
2021/10/11 05:50:39;;;;;;;21.38;14.20;;;12.70;57.20;;;;;;5050523;28;20037;-63
2021/10/11 05:53:05;;;;;;;24.20;14.93;;;12.70;57.90;;;;;;5049884;28;20033;-63
2021/10/11 05:55:31;;;;;;;27.35;14.82;;;12.60;57.90;;;;;;5050633;28;20051;-64
2021/10/11 05:57:58;;;;;;;25.52;13.60;;;12.60;57.90;;;;;;5050585;28;20029;-64
2021/10/11 06:00:23;;;;;;;21.08;14.50;;;12.60;59.20;;;;;;5050332;28;20063;-64
2021/10/11 06:02:49;;;;;;;25.10;14.43;;;12.50;58.60;;;;;;5032854;28;20056;-64
2021/10/11 06:05:15;;;;;;;26.02;15.30;;;12.50;58.50;;;;;;5031999;28;20017;-64
2021/10/11 06:07:41;;;;;;;23.63;15.50;;;12.60;58.60;;;;;;5032683;28;20083;-63
2021/10/11 06:10:07;;;;;;;26.23;15.43;;;12.60;57.50;;;;;;5031901;28;20068;-62
2021/10/11 06:12:33;;;;;;;25.52;15.90;;;12.50;58.10;;;;;;5050777;28;20036;-63
2021/10/11 06:14:59;;;;;;;30.30;16.38;;;12.50;58.30;;;;;;5049850;28;20128;-64
2021/10/11 06:17:25;;;;;;;29.88;17.67;;;12.50;57.60;;;;;;5049520;28;20036;-63
2021/10/11 06:19:52;;;;;;;22.27;14.73;;;12.50;57.40;;;;;;5031305;28;20040;-63
2021/10/11 06:22:18;;;;;;;33.13;16.50;;;12.60;57.90;;;;;;5049143;28;20431;-63
2021/10/11 06:25:04;;;;;;;34.08;15.75;;;12.70;57.90;;;;;;5049234;28;20447;-64
2021/10/11 06:27:30;;;;;;;22.90;14.88;;;12.70;57.20;;;;;;5050035;28;20517;-63
2021/10/11 06:29:56;;;;;;;25.08;14.55;;;12.80;58.00;;;;;;5048555;28;20052;-63
2021/10/11 06:32:22;;;;;;;24.27;14.40;;;12.90;58.90;;;;;;5049268;28;20131;-64
2021/10/11 06:34:48;;;;;;;24.63;15.90;;;12.90;58.60;;;;;;5050034;28;20025;-64
2021/10/11 06:37:14;;;;;;;32.70;15.73;;;12.90;58.20;;;;;;5031721;28;20025;-63
2021/10/11 06:39:39;;;;;;;28.60;16.52;;;13.00;57.40;;;;;;5032699;28;20102;-63
2021/10/11 06:42:05;;;;;;;30.00;16.15;;;13.00;58.10;;;;;;5031610;28;20079;-64
2021/10/11 06:44:31;;;;;;;28.40;16.92;;;13.00;57.90;;;;;;5031979;28;20040;-63
2021/10/11 06:46:57;;;;;;;31.60;17.40;;;13.00;57.60;;;;;;5048993;28;20091;-63
2021/10/11 06:49:23;;;;;;;38.72;19.65;;;13.30;58.50;;;;;;5047632;28;20280;-63
2021/10/11 06:51:50;;;;;;;33.60;18.48;;;15.20;55.00;;;;;;5049361;28;20371;-63
2021/10/11 06:54:18;;;;;;;28.30;17.83;;;16.50;51.20;;;;;;5048844;28;20032;-63
2021/10/11 06:56:44;;;;;;;44.55;17.77;;;18.00;48.80;;;;;;5030528;28;20029;-61
2021/10/11 06:59:10;;;;;;;29.33;18.10;;;18.90;45.30;;;;;;5048298;28;20036;-64
2021/10/11 07:01:36;;;;;;;26.52;18.10;;;18.60;44.60;;;;;;5051122;28;20485;-63
2021/10/11 07:04:03;;;;;;;27.40;18.58;;;19.30;43.80;;;;;;5053745;28;20029;-63
2021/10/11 07:06:29;;;;;;;34.05;17.38;;;21.00;40.80;;;;;;5052374;28;20052;-63
2021/10/11 07:08:54;;;;;;;29.67;17.23;;;22.40;38.80;;;;;;5034563;28;20538;-63
2021/10/11 07:11:20;;;;;;;24.25;18.02;;;23.60;36.20;;;;;;5033446;28;20127;-63
2021/10/11 07:13:47;;;;;;;27.58;16.08;;;24.70;34.60;;;;;;5035095;28;20021;-63
2021/10/11 07:16:13;;;;;;;31.83;15.70;;;25.60;32.50;;;;;;5051768;28;20100;-63
2021/10/11 07:18:38;;;;;;;29.15;14.43;;;25.10;31.90;;;;;;5052699;28;20481;-64
2021/10/11 07:21:06;;;;;;;41.00;15.82;;;24.00;33.60;;;;;;5051812;28;20048;-64
2021/10/11 07:23:33;;;;;;;33.35;15.70;;;22.90;34.30;;;;;;5034109;28;20027;-65
2021/10/11 07:26:02;;;;;;;30.90;15.55;;;22.10;35.40;;;;;;5052526;28;20103;-64
2021/10/11 07:28:29;;;;;;;26.92;16.33;;;21.20;36.90;;;;;;5033681;28;20272;-61
2021/10/11 07:30:55;;;;;;;26.98;16.17;;;20.60;38.20;;;;;;5034157;28;20033;-62
2021/10/11 07:33:22;;;;;;;24.23;16.60;;;20.00;39.40;;;;;;5051895;28;20021;-64
2021/10/11 07:35:51;;;;;;;27.73;17.40;;;19.30;40.80;;;;;;5035041;28;20056;-63
2021/10/11 07:38:17;;;;;;;24.98;17.85;;;18.60;41.50;;;;;;5031321;28;20467;-63
2021/10/11 07:40:43;;;;;;;29.25;18.13;;;18.00;43.00;;;;;;5052054;28;20032;-64
2021/10/11 07:43:09;;;;;;;37.92;19.67;;;18.60;42.70;;;;;;5049787;28;20124;-64
2021/10/11 07:45:35;;;;;;;33.65;18.27;;;19.80;41.30;;;;;;5052242;28;20053;-64
2021/10/11 07:48:01;;;;;;;26.42;18.98;;;20.60;39.40;;;;;;5052560;28;20082;-64
2021/10/11 07:50:27;;;;;;;33.70;21.38;;;20.80;38.80;;;;;;5033262;28;20608;-64
2021/10/11 07:52:53;;;;;;;29.35;20.75;;;22.30;37.40;;;;;;5049890;28;20470;-63
2021/10/11 07:55:19;;;;;;;28.70;19.90;;;23.90;34.80;;;;;;5049787;28;20029;-64
2021/10/11 07:57:45;;;;;;;26.90;21.55;;;24.90;33.10;;;;;;5051672;28;20111;-64
2021/10/11 08:00:14;;;;;;;26.67;19.05;;;25.60;31.70;;;;;;5050637;28;20449;-64
2021/10/11 08:02:40;;;;;;;26.63;17.08;;;25.70;30.50;;;;;;5051426;28;20059;-64
2021/10/11 08:05:07;;;;;;;30.23;15.88;;;24.30;31.90;;;;;;5033039;28;20031;-64
2021/10/11 08:07:33;;;;;;;26.40;16.85;;;23.10;33.00;;;;;;5034549;28;20122;-65
2021/10/11 08:09:59;;;;;;;24.35;16.60;;;22.00;34.60;;;;;;5033089;28;20393;-64
2021/10/11 08:12:25;;;;;;;24.10;14.90;;;20.80;36.40;;;;;;5032846;28;20037;-65
2021/10/11 08:14:51;;;;;;;22.00;14.88;;;20.00;38.40;;;;;;5051712;28;20025;-64
2021/10/11 08:17:17;;;;;;;24.42;15.52;;;19.30;39.60;;;;;;5050578;28;20606;-63
2021/10/11 08:19:42;;;;;;;23.52;14.63;;;18.70;40.50;;;;;;5052059;28;20351;-64
2021/10/11 08:22:08;;;;;;;26.42;15.48;;;18.20;41.00;;;;;;5050758;28;20103;-63
2021/10/11 08:24:34;;;;;;;26.70;16.08;;;18.00;42.40;;;;;;5051694;28;20526;-64
2021/10/11 08:27:00;;;;;;;25.13;15.88;;;17.70;42.20;;;;;;5032756;28;20029;-67
2021/10/11 08:29:26;;;;;;;24.60;16.10;;;17.40;43.90;;;;;;5050377;28;20037;-65
2021/10/11 08:31:55;;;;;;;27.77;16.48;;;17.20;44.10;;;;;;5049819;28;20049;-66
2021/10/11 08:34:20;;;;;;;25.70;16.05;;;17.00;45.00;;;;;;5050231;28;20470;-64
2021/10/11 08:36:46;;;;;;;24.90;14.98;;;16.90;45.10;;;;;;5033289;28;20044;-65
2021/10/11 08:39:12;;;;;;;24.65;14.88;;;16.80;47.30;;;;;;5050991;28;20037;-64
2021/10/11 08:41:38;;;;;;;24.63;15.07;;;16.70;46.80;;;;;;5049654;28;20092;-65
2021/10/11 08:44:05;;;;;;;24.80;14.60;;;16.70;47.30;;;;;;5050656;28;20041;-65
2021/10/11 08:46:31;;;;;;;21.73;14.32;;;16.60;47.30;;;;;;5033275;28;20108;-63
2021/10/11 08:48:59;;;;;;;22.50;13.80;;;16.50;47.00;;;;;;5050743;28;20258;-64
2021/10/11 08:51:24;;;;;;;17.63;13.25;;;16.40;46.50;;;;;;5051419;28;20656;-65
2021/10/11 08:53:50;;;;;;;20.30;13.18;;;16.40;47.60;;;;;;5050298;28;20128;-64
2021/10/11 08:56:16;;;;;;;27.33;13.05;;;16.40;48.30;;;;;;5049895;28;20025;-64
2021/10/11 08:58:44;;;;;;;19.83;12.57;;;16.30;47.10;;;;;;5032154;28;20044;-65
2021/10/11 09:01:11;;;;;;;25.23;12.85;;;16.30;48.10;;;;;;5047311;28;20036;-65
2021/10/11 09:03:36;;;;;;;23.65;13.15;;;16.30;47.10;;;;;;5050070;28;20016;-67
2021/10/11 09:06:06;;;;;;;24.65;12.05;;;16.20;46.70;;;;;;5050921;28;20032;-64
2021/10/11 09:08:33;;;;;;;18.05;11.43;;;16.10;47.00;;;;;;5050743;28;20032;-63
2021/10/11 09:11:08;;;;;;;20.38;11.50;;;16.10;47.70;;;;;;5049371;28;20051;-64
2021/10/11 09:13:48;;;;;;;23.40;11.70;;;16.20;46.70;;;;;;5049524;28;20128;-64
2021/10/11 09:19:27;;;;;;;24.25;13.30;;;16.30;46.50;;;;;;5051534;28;20037;-63
2021/10/11 09:21:53;;;;;;;18.67;11.55;;;16.40;46.80;;;;;;5049705;28;20021;-64
2021/10/11 09:24:20;;;;;;;16.90;12.02;;;16.50;46.20;;;;;;5049574;28;20029;-63
2021/10/11 09:26:47;;;;;;;20.33;11.95;;;16.50;45.40;;;;;;5032098;28;20036;-66
2021/10/11 09:29:26;;;;;;;19.58;13.63;;;16.50;44.90;;;;;;5031396;28;20052;-68
2021/10/11 09:31:52;;;;;;;23.30;12.07;;;16.60;45.10;;;;;;5033122;28;20037;-66
2021/10/11 09:34:21;;;;;;;22.02;12.02;;;16.60;45.30;;;;;;5048222;28;20086;-65
2021/10/11 09:37:17;;;;;;;22.30;12.60;;;16.70;44.70;;;;;;5049662;28;20464;-65
2021/10/11 09:39:43;;;;;;;17.33;11.43;;;16.80;46.30;;;;;;5033350;28;20032;-66
2021/10/11 09:42:14;;;;;;;18.75;12.00;;;16.90;46.30;;;;;;5031130;28;20527;-66
2021/10/11 09:44:50;;;;;;;23.95;13.05;;;16.90;46.40;;;;;;5050324;28;20049;-66
2021/10/11 09:47:32;;;;;;;18.85;12.30;;;16.90;44.30;;;;;;5031943;28;20025;-68
2021/10/11 09:50:01;;;;;;;25.05;12.93;;;16.90;43.90;;;;;;5032033;28;20037;-64
2021/10/11 09:52:29;;;;;;;22.92;13.60;;;17.10;44.20;;;;;;5031309;28;20375;-66
2021/10/11 09:54:55;;;;;;;20.58;13.27;;;17.20;44.20;;;;;;5049728;28;20036;-63
2021/10/11 09:57:22;;;;;;;23.27;12.52;;;17.30;43.80;;;;;;5050238;28;20029;-67
2021/10/11 09:59:48;;;;;;;21.45;13.25;;;17.30;44.40;;;;;;5031479;28;20033;-64
2021/10/11 10:02:17;;;;;;;23.52;13.15;;;17.30;43.90;;;;;;5047876;28;20056;-66
2021/10/11 10:04:44;;;;;;;21.67;13.00;;;17.20;44.80;;;;;;5031224;28;20029;-65
2021/10/11 10:07:13;;;;;;;17.40;11.95;;;17.10;44.70;;;;;;5048643;28;20156;-64
2021/10/11 10:09:45;;;;;;;16.48;11.10;;;17.00;44.90;;;;;;5048907;28;20025;-64
2021/10/11 10:12:12;;;;;;;20.15;11.80;;;17.00;44.80;;;;;;5049167;28;20028;-65
2021/10/11 10:14:38;;;;;;;18.63;11.65;;;17.10;45.20;;;;;;5030710;28;20044;-65
2021/10/11 10:17:03;;;;;;;18.23;10.73;;;17.20;43.70;;;;;;5031429;28;20412;-65
2021/10/11 10:19:38;;;;;;;20.13;11.32;;;17.30;44.70;;;;;;5030350;28;20419;-64
2021/10/11 10:22:09;;;;;;;25.92;12.20;;;17.30;45.60;;;;;;5047686;28;20139;-63
2021/10/11 10:25:03;;;;;;;19.75;10.85;;;17.30;43.60;;;;;;5048688;28;20119;-65
2021/10/11 10:27:36;;;;;;;24.45;13.55;;;17.30;45.30;;;;;;5047214;28;20051;-65
2021/10/11 10:30:24;;;;;;;17.77;10.65;;;17.40;43.10;;;;;;5048993;28;20056;-65
2021/10/11 10:32:58;;;;;;;16.20;11.30;;;17.30;46.90;;;;;;5031046;28;20045;-65
2021/10/11 10:35:25;;;;;;;14.75;10.32;;;17.50;45.20;;;;;;5048276;28;20090;-65
2021/10/11 10:37:51;;;;;;;21.52;11.93;;;17.50;44.70;;;;;;5048807;28;20112;-65
2021/10/11 10:40:19;;;;;;;22.48;10.52;;;17.40;43.50;;;;;;5049536;28;20053;-67
2021/10/11 10:42:46;;;;;;;16.17;10.73;;;17.40;43.90;;;;;;5049161;28;20033;-66
2021/10/11 10:45:22;;;;;;;20.40;11.98;;;17.50;44.20;;;;;;5030061;28;20056;-63
2021/10/11 10:47:50;;;;;;;17.98;10.48;;;17.50;42.80;;;;;;5030998;28;20402;-65
2021/10/11 10:50:21;;;;;;;17.98;12.15;;;17.60;45.20;;;;;;5048698;28;20083;-65
2021/10/11 10:52:53;;;;;;;23.08;12.63;;;17.60;44.50;;;;;;5049243;28;20025;-65
2021/10/11 10:55:19;;;;;;;18.52;12.32;;;17.50;43.30;;;;;;5030594;28;20029;-65
2021/10/11 10:57:45;;;;;;;24.40;12.15;;;17.50;44.40;;;;;;5031101;28;20029;-65
2021/10/11 11:00:18;;;;;;;17.67;10.60;;;17.50;43.30;;;;;;5048384;28;20381;-65
2021/10/11 11:02:48;;;;;;;20.08;11.88;;;17.50;43.50;;;;;;5049125;28;20052;-63
2021/10/11 11:05:15;;;;;;;18.05;12.00;;;17.50;43.70;;;;;;5027995;28;20033;-65
2021/10/11 11:07:43;;;;;;;20.15;11.73;;;17.60;42.90;;;;;;5045303;28;20474;-62
2021/10/11 11:10:16;;;;;;;18.20;11.43;;;17.70;43.20;;;;;;5043369;28;20135;-59
2021/10/11 11:12:44;;;;;;;27.95;13.32;;;17.70;42.30;;;;;;5040482;28;20021;-61
2021/10/11 11:15:23;;;;;;;16.27;11.27;;;17.70;42.40;;;;;;5029091;28;20044;-55
2021/10/11 11:17:49;;;;;;;19.30;10.63;;;17.70;42.80;;;;;;5048444;28;20132;-62
2021/10/11 11:20:23;;;;;;;17.38;10.63;;;17.80;41.90;;;;;;5031041;28;20084;-61
2021/10/11 11:22:52;;;;;;;19.88;12.05;;;17.80;43.20;;;;;;5049022;28;20025;-58
2021/10/11 11:25:51;;;;;;;21.08;11.07;;;18.00;42.60;;;;;;5046949;28;20032;-60
2021/10/11 11:28:22;;;;;;;16.55;10.35;;;18.00;42.40;;;;;;5024648;28;20360;-61
2021/10/11 11:30:54;;;;;;;22.85;11.32;;;18.10;41.90;;;;;;5031431;28;20033;-61
2021/10/11 11:33:22;;;;;;;16.85;11.43;;;18.20;41.90;;;;;;5049999;28;20029;-61
2021/10/11 11:35:55;;;;;;;21.15;11.35;;;18.20;41.20;;;;;;5047529;28;20036;-62
2021/10/11 11:38:28;;;;;;;21.23;10.40;;;18.30;41.20;;;;;;5049105;28;20036;-62
2021/10/11 11:40:59;;;;;;;25.10;11.88;;;18.40;41.70;;;;;;5048346;28;20033;-61
2021/10/11 11:43:28;;;;;;;17.02;9.70;;;18.50;40.50;;;;;;5048989;28;20378;-64
2021/10/11 11:45:55;;;;;;;18.90;10.80;;;18.50;40.80;;;;;;5050156;28;20130;-56
2021/10/11 11:48:30;;;;;;;22.85;11.18;;;18.50;40.80;;;;;;5034223;28;20037;-57
2021/10/11 11:51:05;;;;;;;15.27;10.38;;;18.50;41.40;;;;;;5053030;28;20053;-67
2021/10/11 11:53:33;;;;;;;18.83;9.90;;;18.60;40.40;;;;;;5035131;28;20021;-69
2021/10/11 11:56:01;;;;;;;16.00;11.00;;;18.50;40.80;;;;;;5051426;28;20021;-63
2021/10/11 11:58:35;;;;;;;20.05;10.68;;;18.40;40.90;;;;;;5050822;28;20137;-65
2021/10/11 12:01:27;;;;;;;17.90;9.98;;;18.40;41.50;;;;;;5035026;28;20040;-64
2021/10/11 12:04:02;;;;;;;17.38;11.15;;;18.40;41.40;;;;;;5053058;28;20090;-70
2021/10/11 12:06:33;;;;;;;20.67;11.27;;;18.60;42.50;;;;;;5052861;28;20446;-68
2021/10/11 12:09:00;;;;;;;19.80;12.75;;;19.40;40.10;;;;;;5052821;28;20029;-64
2021/10/11 12:11:26;;;;;;;21.10;10.88;;;19.70;39.50;;;;;;5053588;28;20233;-67
2021/10/11 12:13:57;;;;;;;18.25;11.13;;;19.60;39.50;;;;;;5035140;28;20407;-66
2021/10/11 12:16:25;;;;;;;18.80;11.02;;;19.50;39.80;;;;;;5034396;28;20177;-67
2021/10/11 12:18:53;;;;;;;23.92;9.75;;;19.30;39.70;;;;;;5034692;28;20029;-67
2021/10/11 12:21:36;;;;;;;18.42;10.55;;;19.10;41.00;;;;;;5033904;28;20021;-66
2021/10/11 12:24:13;;;;;;;18.95;10.43;;;19.10;40.60;;;;;;5052286;28;20021;-67
2021/10/11 12:26:54;;;;;;;17.38;9.88;;;19.00;41.10;;;;;;5052339;28;20099;-65
2021/10/11 12:29:22;;;;;;;22.75;10.10;;;18.90;40.90;;;;;;5052682;28;20055;-66
2021/10/11 12:32:06;;;;;;;19.75;12.07;;;19.00;42.10;;;;;;5051165;28;20491;-66
2021/10/11 12:34:36;;;;;;;;;;;19.00;40.80;;;;;;5035444;28;20021;-68
2021/10/11 12:37:07;;;;;;;20.02;12.55;;;18.90;41.10;;;;;;5034371;28;19901;-67
2021/10/11 12:39:34;;;;;;;18.85;11.88;;;18.70;41.50;;;;;;5052402;28;20028;-66